createdAt,value
2018-05-15T00:01:38.295Z,40.33
2018-05-15T00:04:05.825Z,43.63
2018-05-15T00:06:33.532Z,46.03
2018-05-15T00:09:01.067Z,51.73
2018-05-15T00:11:28.838Z,46.37
2018-05-15T00:13:56.390Z,48.83
2018-05-15T00:16:24.029Z,52.53
2018-05-15T00:18:51.648Z,41.60
2018-05-15T00:21:19.192Z,48.80
2018-05-15T00:23:46.777Z,52.87
2018-05-15T00:26:14.369Z,55.17
2018-05-15T00:28:42.129Z,51.10
2018-05-15T00:31:09.681Z,49.33
2018-05-15T00:33:38.234Z,46.57
2018-05-15T00:36:05.761Z,57.27
2018-05-15T00:38:33.333Z,44.20
2018-05-15T00:41:00.863Z,47.27
2018-05-15T00:43:29.005Z,49.77
2018-05-15T00:45:56.529Z,53.73
2018-05-15T00:48:24.118Z,53.60
2018-05-15T00:50:51.705Z,47.93
2018-05-15T00:53:19.275Z,45.43
2018-05-15T00:55:47.601Z,49.20
2018-05-15T00:58:15.140Z,40.40
2018-05-15T01:00:42.690Z,51.63
2018-05-15T01:03:10.213Z,49.70
2018-05-15T01:05:37.780Z,53.63
2018-05-15T01:08:05.301Z,54.00
2018-05-15T01:10:33.172Z,48.53
2018-05-15T01:13:00.696Z,41.43
2018-05-15T01:15:29.694Z,46.47
2018-05-15T01:17:57.245Z,49.83
2018-05-15T01:20:24.858Z,48.83
2018-05-15T01:22:52.431Z,47.50
2018-05-15T01:25:19.954Z,46.33
2018-05-15T01:27:47.529Z,45.03
2018-05-15T01:30:15.261Z,49.37
2018-05-15T01:32:42.797Z,45.97
2018-05-15T01:35:10.363Z,47.67
2018-05-15T01:37:37.947Z,43.33
2018-05-15T01:40:05.529Z,50.03
2018-05-15T01:42:33.126Z,44.10
2018-05-15T01:45:00.662Z,51.43
2018-05-15T01:47:29.086Z,56.58
2018-05-15T01:49:56.768Z,48.10
2018-05-15T01:52:24.297Z,47.97
2018-05-15T01:54:53.012Z,54.40
2018-05-15T01:57:20.574Z,53.20
2018-05-15T01:59:48.161Z,53.37
2018-05-15T02:02:16.509Z,53.73
2018-05-15T02:04:44.072Z,54.60
2018-05-15T02:07:12.409Z,51.33
2018-05-15T02:09:39.933Z,51.33
2018-05-15T02:12:07.535Z,53.00
2018-05-15T02:14:35.067Z,48.17
2018-05-15T02:17:02.775Z,49.90
2018-05-15T02:19:30.289Z,45.37
2018-05-15T02:21:57.855Z,49.13
2018-05-15T02:24:25.380Z,51.43
2018-05-15T02:26:53.721Z,45.37
2018-05-15T02:29:21.297Z,43.90
2018-05-15T02:31:48.841Z,41.00
2018-05-15T02:34:16.427Z,41.40
2018-05-15T02:36:44.009Z,43.90
2018-05-15T02:39:11.602Z,42.43
2018-05-15T02:41:39.131Z,41.53
2018-05-15T02:44:06.708Z,35.63
2018-05-15T02:46:34.249Z,41.97
2018-05-15T02:49:01.821Z,42.63
2018-05-15T02:51:29.409Z,35.80
2018-05-15T02:53:56.936Z,37.17
2018-05-15T02:56:24.505Z,35.60
2018-05-15T02:58:52.065Z,35.93
2018-05-15T03:01:20.588Z,29.63
2018-05-15T03:03:48.184Z,33.63
2018-05-15T03:06:15.771Z,30.90
2018-05-15T03:08:43.341Z,33.87
2018-05-15T03:11:10.857Z,34.87
2018-05-15T03:13:38.880Z,36.63
2018-05-15T03:16:07.213Z,40.17
2018-05-15T03:18:34.755Z,37.30
2018-05-15T03:21:02.369Z,42.67
2018-05-15T03:23:29.952Z,40.17
2018-05-15T03:25:57.658Z,37.30
2018-05-15T03:28:25.244Z,35.30
2018-05-15T03:30:53.549Z,35.13
2018-05-15T03:33:21.127Z,35.13
2018-05-15T03:35:48.664Z,31.67
2018-05-15T03:38:16.247Z,36.90
2018-05-15T03:40:43.770Z,38.50
2018-05-15T03:43:11.337Z,36.77
2018-05-15T03:45:39.065Z,27.57
2018-05-15T03:48:06.642Z,41.73
2018-05-15T03:50:34.951Z,39.23
2018-05-15T03:53:02.519Z,31.17
2018-05-15T03:55:30.066Z,42.53
2018-05-15T03:57:57.629Z,42.57
2018-05-15T04:00:37.101Z,39.50
2018-05-15T04:03:16.455Z,37.67
2018-05-15T04:05:55.838Z,38.70
2018-05-15T04:08:27.668Z,35.97
2018-05-15T04:10:55.337Z,36.27
2018-05-15T04:13:22.835Z,35.43
2018-05-15T04:15:50.406Z,30.80
2018-05-15T04:18:17.936Z,34.00
2018-05-15T04:20:45.493Z,35.37
2018-05-15T04:23:13.305Z,36.63
2018-05-15T04:25:41.450Z,38.03
2018-05-15T04:28:09.072Z,37.33
2018-05-15T04:30:37.336Z,33.53
2018-05-15T04:33:05.004Z,35.03
2018-05-15T04:35:32.525Z,33.53
2018-05-15T04:38:00.839Z,37.37
2018-05-15T04:40:28.359Z,37.63
2018-05-15T04:42:56.700Z,39.93
2018-05-15T04:45:24.235Z,38.13
2018-05-15T04:47:51.868Z,41.33
2018-05-15T04:50:19.425Z,38.90
2018-05-15T04:52:46.995Z,37.53
2018-05-15T04:55:14.558Z,31.90
2018-05-15T04:57:42.116Z,38.47
2018-05-15T05:00:09.643Z,40.00
2018-05-15T05:02:37.214Z,42.37
2018-05-15T05:05:04.777Z,35.53
2018-05-15T05:07:32.356Z,39.33
2018-05-15T05:09:59.936Z,36.53
2018-05-15T05:12:27.471Z,42.10
2018-05-15T05:14:55.386Z,44.90
2018-05-15T05:17:22.912Z,48.60
2018-05-15T05:19:50.511Z,50.23
2018-05-15T05:22:18.643Z,43.13
2018-05-15T05:24:46.200Z,49.17
2018-05-15T05:27:13.784Z,48.33
2018-05-15T05:29:42.116Z,40.60
2018-05-15T05:32:11.001Z,39.13
2018-05-15T05:34:38.570Z,40.27
2018-05-15T05:37:06.162Z,43.60
2018-05-15T05:39:33.721Z,43.03
2018-05-15T05:42:02.083Z,42.87
2018-05-15T05:44:30.740Z,53.37
2018-05-15T05:46:58.277Z,43.20
2018-05-15T05:49:25.852Z,47.97
2018-05-15T05:51:53.677Z,42.57
2018-05-15T05:54:21.287Z,46.90
2018-05-15T05:56:48.890Z,50.70
2018-05-15T05:59:16.592Z,44.13
2018-05-15T06:01:44.112Z,45.33
2018-05-15T06:04:12.447Z,48.67
2018-05-15T06:06:40.005Z,44.93
2018-05-15T06:09:07.602Z,52.87
2018-05-15T06:11:35.176Z,51.60
2018-05-15T06:14:02.752Z,51.80
2018-05-15T06:16:30.280Z,42.60
2018-05-15T06:18:57.856Z,49.00
2018-05-15T06:21:26.160Z,50.80
2018-05-15T06:23:53.719Z,49.53
2018-05-15T06:26:22.022Z,46.47
2018-05-15T06:28:49.608Z,47.37
2018-05-15T06:31:17.922Z,55.00
2018-05-15T06:33:45.478Z,53.43
2018-05-15T06:36:13.050Z,47.20
2018-05-15T06:38:40.616Z,45.73
2018-05-15T06:41:08.199Z,48.57
2018-05-15T06:43:35.716Z,52.13
2018-05-15T06:46:03.274Z,49.37
2018-05-15T06:48:30.878Z,48.03
2018-05-15T06:50:58.411Z,45.70
2018-05-15T06:53:26.006Z,45.23
2018-05-15T06:55:54.291Z,49.70
2018-05-15T06:58:21.873Z,47.93
2018-05-15T07:00:49.492Z,50.57
2018-05-15T07:03:17.018Z,41.37
2018-05-15T07:05:44.594Z,43.47
2018-05-15T07:08:12.877Z,41.87
2018-05-15T07:10:41.282Z,47.03
2018-05-15T07:13:08.845Z,47.60
2018-05-15T07:15:36.502Z,44.90
2018-05-15T07:18:04.035Z,44.10
2018-05-15T07:20:31.611Z,43.47
2018-05-15T07:22:59.133Z,53.17
2018-05-15T07:25:27.432Z,48.33
2018-05-15T07:27:55.009Z,52.30
2018-05-15T07:30:22.554Z,48.90
2018-05-15T07:32:50.120Z,33.47
2018-05-15T07:35:17.658Z,42.60
2018-05-15T07:37:45.219Z,42.30
2018-05-15T07:40:12.771Z,40.93
2018-05-15T07:42:40.335Z,43.73
2018-05-15T07:45:08.671Z,45.43
2018-05-15T07:47:36.199Z,45.57
2018-05-15T07:50:03.789Z,43.37
2018-05-15T07:52:31.319Z,38.13
2018-05-15T07:54:58.894Z,46.37
2018-05-15T07:57:26.437Z,47.07
2018-05-15T07:59:54.004Z,49.53
2018-05-15T08:02:21.553Z,39.07
2018-05-15T08:04:49.094Z,43.30
2018-05-15T08:07:16.659Z,45.37
2018-05-15T08:09:44.176Z,42.73
2018-05-15T08:12:12.501Z,46.37
2018-05-15T08:14:40.034Z,45.50
2018-05-15T08:17:07.619Z,41.53
2018-05-15T08:19:35.189Z,38.05
2018-05-15T08:22:02.763Z,53.40
2018-05-15T08:24:30.296Z,44.17
2018-05-15T08:26:57.876Z,40.37
2018-05-15T08:29:25.566Z,42.73
2018-05-15T08:31:53.159Z,41.40
2018-05-15T08:34:20.719Z,33.63
2018-05-15T08:36:48.277Z,41.77
2018-05-15T08:39:15.792Z,51.10
2018-05-15T08:41:44.111Z,36.63
2018-05-15T08:44:11.691Z,31.63
2018-05-15T08:46:40.041Z,46.80
2018-05-15T08:49:07.610Z,41.27
2018-05-15T08:51:35.222Z,27.70
2018-05-15T08:54:02.710Z,46.87
2018-05-15T08:56:30.412Z,43.33
2018-05-15T08:58:57.987Z,43.37
2018-05-15T09:01:25.524Z,41.47
2018-05-15T09:03:53.055Z,41.70
2018-05-15T09:06:20.617Z,43.80
2018-05-15T09:08:48.180Z,37.03
2018-05-15T09:11:15.763Z,42.13
2018-05-15T09:13:44.091Z,40.93
2018-05-15T09:16:11.663Z,42.13
2018-05-15T09:18:39.219Z,43.03
2018-05-15T09:21:06.785Z,41.73
2018-05-15T09:23:34.335Z,41.20
2018-05-15T09:26:01.907Z,37.87
2018-05-15T09:28:29.478Z,45.37
2018-05-15T09:30:57.008Z,41.20
2018-05-15T09:33:24.587Z,39.33
2018-05-15T09:35:52.141Z,47.40
2018-05-15T09:38:19.733Z,41.47
2018-05-15T09:40:47.271Z,43.07
2018-05-15T09:46:26.285Z,36.27
2018-05-15T09:48:53.923Z,41.00
2018-05-15T09:51:21.462Z,39.27
2018-05-15T09:53:49.152Z,41.80
2018-05-15T09:56:16.722Z,41.30
2018-05-15T09:58:44.361Z,40.57
2018-05-15T10:01:11.894Z,44.13
2018-05-15T10:03:39.453Z,45.73
2018-05-15T10:06:07.054Z,40.17
2018-05-15T10:08:34.785Z,38.87
2018-05-15T10:11:02.354Z,35.47
2018-05-15T10:13:29.985Z,41.33
2018-05-15T10:15:57.550Z,42.47
2018-05-15T10:18:25.923Z,37.10
2018-05-15T10:20:53.583Z,40.07
2018-05-15T10:23:21.187Z,37.83
2018-05-15T10:25:48.922Z,35.07
2018-05-15T10:28:16.588Z,40.93
2018-05-15T10:30:44.159Z,37.23
2018-05-15T10:33:11.820Z,37.33
2018-05-15T10:35:39.386Z,34.23
2018-05-15T10:38:06.942Z,41.60
2018-05-15T10:40:34.502Z,44.87
2018-05-15T10:43:02.065Z,38.50
2018-05-15T10:45:29.682Z,40.83
2018-05-15T10:47:57.283Z,40.53
2018-05-15T10:50:24.895Z,41.43
2018-05-15T10:52:52.580Z,46.80
2018-05-15T10:55:20.178Z,44.60
2018-05-15T10:57:48.032Z,45.87
2018-05-15T11:00:16.373Z,47.10
2018-05-15T11:02:43.939Z,39.13
2018-05-15T11:05:11.530Z,43.80
2018-05-15T11:07:39.343Z,42.70
2018-05-15T11:10:06.965Z,43.57
2018-05-15T11:12:34.514Z,41.20
2018-05-15T11:15:02.100Z,36.33
2018-05-15T11:17:29.758Z,37.57
2018-05-15T11:20:09.028Z,39.87
2018-05-15T11:22:48.290Z,40.83
2018-05-15T11:25:15.843Z,44.40
2018-05-15T11:27:44.217Z,42.63
2018-05-15T11:30:13.397Z,44.40
2018-05-15T11:32:40.980Z,39.67
2018-05-15T11:35:09.309Z,39.43
2018-05-15T11:37:36.896Z,37.07
2018-05-15T11:40:04.478Z,38.50
2018-05-15T11:42:32.185Z,37.20
2018-05-15T11:44:59.769Z,41.90
2018-05-15T11:47:27.440Z,39.80
2018-05-15T11:49:55.699Z,36.83
2018-05-15T11:52:23.245Z,40.60
2018-05-15T11:54:50.068Z,34.53
2018-05-15T11:57:17.656Z,40.43
2018-05-15T11:59:45.349Z,36.33
2018-05-15T12:02:12.874Z,39.23
2018-05-15T12:04:40.413Z,40.70
2018-05-15T12:07:08.022Z,41.57
2018-05-15T12:09:36.458Z,36.40
2018-05-15T12:12:04.053Z,38.43
2018-05-15T12:14:32.395Z,35.43
2018-05-15T12:16:59.973Z,29.87
2018-05-15T12:19:27.569Z,36.77
2018-05-15T12:21:55.148Z,35.33
2018-05-15T12:24:22.779Z,31.90
2018-05-15T12:26:51.079Z,30.57
2018-05-15T12:29:18.679Z,29.53
2018-05-15T12:31:46.346Z,31.83
2018-05-15T12:34:13.946Z,29.50
2018-05-15T12:36:41.547Z,32.90
2018-05-15T12:39:09.080Z,32.90
2018-05-15T12:41:36.773Z,28.97
2018-05-15T12:44:04.237Z,31.90
2018-05-15T12:46:31.826Z,28.80
2018-05-15T12:48:59.375Z,27.83
2018-05-15T12:51:26.961Z,34.10
2018-05-15T12:53:55.553Z,33.67
2018-05-15T12:56:23.150Z,31.43
2018-05-15T12:58:50.737Z,26.97
2018-05-15T13:01:18.358Z,30.63
2018-05-15T13:03:45.918Z,32.20
2018-05-15T13:06:13.517Z,31.03
2018-05-15T13:08:41.101Z,31.23
2018-05-15T13:11:08.643Z,31.17
2018-05-15T13:13:36.229Z,31.57
2018-05-15T13:16:11.234Z,31.30
2018-05-15T13:18:38.841Z,30.10
2018-05-15T13:21:06.443Z,33.17
2018-05-15T13:23:34.021Z,32.90
2018-05-15T13:26:01.567Z,34.50
2018-05-15T13:28:29.148Z,34.87
2018-05-15T13:30:56.735Z,34.13
2018-05-15T13:33:25.038Z,31.37
2018-05-15T13:35:53.390Z,37.20
2018-05-15T13:38:21.090Z,31.70
2018-05-15T13:40:48.685Z,32.70
2018-05-15T13:43:16.265Z,36.70
2018-05-15T13:45:45.361Z,35.93
2018-05-15T13:48:12.949Z,35.70
2018-05-15T13:50:40.546Z,36.90
2018-05-15T13:53:08.134Z,35.33
2018-05-15T13:55:36.462Z,35.27
2018-05-15T13:58:04.043Z,36.13
2018-05-15T14:00:31.632Z,37.47
2018-05-15T14:02:59.219Z,35.87
2018-05-15T14:05:26.807Z,34.47
2018-05-15T14:07:54.388Z,32.83
2018-05-15T14:10:21.925Z,33.20
2018-05-15T14:12:49.517Z,34.87
2018-05-15T14:15:17.120Z,34.23
2018-05-15T14:17:44.722Z,32.73
2018-05-15T14:20:12.311Z,38.00
2018-05-15T14:22:40.673Z,29.73
2018-05-15T14:25:09.035Z,30.03
2018-05-15T14:27:36.642Z,31.23
2018-05-15T14:30:04.242Z,35.93
2018-05-15T14:32:31.785Z,31.43
2018-05-15T14:34:59.379Z,30.23
2018-05-15T14:37:26.986Z,30.93
2018-05-15T14:39:54.536Z,32.27
2018-05-15T14:42:33.799Z,34.13
2018-05-15T14:45:01.337Z,33.47
2018-05-15T14:47:29.856Z,32.30
2018-05-15T14:49:57.698Z,33.53
2018-05-15T14:52:25.254Z,33.77
2018-05-15T14:54:52.839Z,33.83
2018-05-15T14:57:20.429Z,31.07
2018-05-15T14:59:48.022Z,36.40
2018-05-15T15:02:15.567Z,32.87
2018-05-15T15:04:43.267Z,31.77
2018-05-15T15:07:10.816Z,28.90
2018-05-15T15:09:38.483Z,29.73
2018-05-15T15:12:06.085Z,33.63
2018-05-15T15:14:33.640Z,26.80
2018-05-15T15:17:01.392Z,27.50
2018-05-15T15:19:29.909Z,29.07
2018-05-15T15:21:57.511Z,27.13
2018-05-15T15:24:25.096Z,28.53
2018-05-15T15:26:53.468Z,24.77
2018-05-15T15:29:21.776Z,30.50
2018-05-15T15:31:49.368Z,28.53
2018-05-15T15:34:16.932Z,27.70
2018-05-15T15:36:44.804Z,29.40
2018-05-15T15:39:12.389Z,25.83
2018-05-15T15:41:39.985Z,31.00
2018-05-15T15:44:07.597Z,27.90
2018-05-15T15:46:35.146Z,29.33
2018-05-15T15:49:04.542Z,31.63
2018-05-15T15:51:32.151Z,25.90
2018-05-15T15:53:59.757Z,29.83
2018-05-15T15:56:27.321Z,27.33
2018-05-15T15:58:54.926Z,28.83
2018-05-15T16:01:22.482Z,27.87
2018-05-15T16:03:50.100Z,25.33
2018-05-15T16:06:17.633Z,28.03
2018-05-15T16:08:45.243Z,28.83
2018-05-15T16:11:12.820Z,28.33
2018-05-15T16:13:40.411Z,28.57
2018-05-15T16:16:07.955Z,27.87
2018-05-15T16:18:35.583Z,29.57
2018-05-15T16:21:03.151Z,29.33
2018-05-15T16:23:30.762Z,27.13
2018-05-15T16:25:58.363Z,29.03
2018-05-15T16:28:25.951Z,28.43
2018-05-15T16:30:53.549Z,28.40
2018-05-15T16:33:21.152Z,26.93
2018-05-15T16:35:48.778Z,23.83
2018-05-15T16:38:17.154Z,27.23
2018-05-15T16:40:44.726Z,27.47
2018-05-15T16:43:12.334Z,28.60
2018-05-15T16:45:39.911Z,23.60
2018-05-15T16:48:07.528Z,27.67
2018-05-15T16:50:35.877Z,19.77
2018-05-15T16:53:03.499Z,24.13
2018-05-15T16:55:31.060Z,23.00
2018-05-15T16:57:58.642Z,24.03
2018-05-15T17:00:26.197Z,24.37
2018-05-15T17:02:54.577Z,21.90
2018-05-15T17:05:22.158Z,21.23
2018-05-15T17:07:49.815Z,22.80
2018-05-15T17:10:17.381Z,19.07
2018-05-15T17:12:44.998Z,21.87
2018-05-15T17:15:12.600Z,18.27
2018-05-15T17:17:40.320Z,15.83
2018-05-15T17:20:07.911Z,26.00
2018-05-15T17:22:35.520Z,21.63
2018-05-15T17:25:03.074Z,21.23
2018-05-15T17:27:30.647Z,26.70
2018-05-15T17:29:58.240Z,26.90
2018-05-15T17:32:26.861Z,29.63
2018-05-15T17:34:54.440Z,27.20
2018-05-15T17:37:22.232Z,21.17
2018-05-15T17:39:49.933Z,22.03
2018-05-15T17:42:17.527Z,24.17
2018-05-15T17:44:45.100Z,23.40
2018-05-15T17:47:12.711Z,22.20
2018-05-15T17:49:40.299Z,21.50
2018-05-15T17:52:07.861Z,19.87
2018-05-15T17:54:35.459Z,22.80
2018-05-15T17:57:02.997Z,23.00
2018-05-15T17:59:31.406Z,21.77
2018-05-15T18:01:59.134Z,23.73
2018-05-15T18:04:26.701Z,23.47
2018-05-15T18:06:54.313Z,22.73
2018-05-15T18:09:21.898Z,18.73
2018-05-15T18:11:49.509Z,23.43
2018-05-15T18:14:17.062Z,20.37
2018-05-15T18:16:44.649Z,24.47
2018-05-15T18:19:12.188Z,20.83
2018-05-15T18:21:39.874Z,22.50
2018-05-15T18:24:07.426Z,14.63
2018-05-15T18:26:35.030Z,19.73
2018-05-15T18:29:02.578Z,24.57
2018-05-15T18:31:30.174Z,17.60
2018-05-15T18:33:57.784Z,20.50
2018-05-15T18:36:25.314Z,22.10
2018-05-15T18:38:52.926Z,20.03
2018-05-15T18:41:20.519Z,17.37
2018-05-15T18:43:48.116Z,17.57
2018-05-15T18:46:16.475Z,20.67
2018-05-15T18:48:44.035Z,23.80
2018-05-15T18:51:11.643Z,17.13
2018-05-15T18:53:39.961Z,21.80
2018-05-15T18:56:07.568Z,17.33
2018-05-15T18:58:35.130Z,16.30
2018-05-15T19:01:02.731Z,23.47
2018-05-15T19:03:30.342Z,22.30
2018-05-15T19:05:57.948Z,20.83
2018-05-15T19:08:25.492Z,17.77
2018-05-15T19:10:53.870Z,20.83
2018-05-15T19:13:22.252Z,24.93
2018-05-15T19:15:50.626Z,26.70
2018-05-15T19:18:18.955Z,21.17
2018-05-15T19:20:46.548Z,20.07
2018-05-15T19:23:15.063Z,24.03
2018-05-15T19:25:42.614Z,23.93
2018-05-15T19:28:10.983Z,24.40
2018-05-15T19:30:39.355Z,24.23
2018-05-15T19:33:07.737Z,23.47
2018-05-15T19:35:41.103Z,24.50
2018-05-15T19:38:08.683Z,23.40
2018-05-15T19:40:42.050Z,25.87
2018-05-15T19:43:09.647Z,20.87
2018-05-15T19:45:37.225Z,25.67
2018-05-15T19:48:04.769Z,28.07
2018-05-15T19:50:32.313Z,24.73
2018-05-15T19:52:59.903Z,25.47
2018-05-15T19:55:27.464Z,25.33
2018-05-15T19:57:55.035Z,26.80
2018-05-15T20:00:22.705Z,24.30
2018-05-15T20:02:50.364Z,25.27
2018-05-15T20:05:17.937Z,26.90
2018-05-15T20:07:45.501Z,21.27
2018-05-15T20:10:13.089Z,21.67
2018-05-15T20:12:41.405Z,24.80
2018-05-15T20:15:08.995Z,25.00
2018-05-15T20:17:37.362Z,25.90
2018-05-15T20:20:04.950Z,20.57
2018-05-15T20:22:32.523Z,25.47
2018-05-15T20:25:00.108Z,27.13
2018-05-15T20:27:27.756Z,28.30
2018-05-15T20:29:55.339Z,24.63
2018-05-15T20:32:22.920Z,19.80
2018-05-15T20:34:50.561Z,24.53
2018-05-15T20:37:18.087Z,25.73
2018-05-15T20:39:45.760Z,23.67
2018-05-15T20:42:13.290Z,25.77
2018-05-15T20:44:40.899Z,18.83
2018-05-15T20:47:14.413Z,26.93
2018-05-15T20:49:41.967Z,25.23
2018-05-15T20:52:09.645Z,21.07
2018-05-15T20:54:37.164Z,23.67
2018-05-15T20:57:04.760Z,23.97
2018-05-15T20:59:33.123Z,25.33
2018-05-15T21:02:01.427Z,24.10
2018-05-15T21:04:29.805Z,20.67
2018-05-15T21:06:58.103Z,19.57
2018-05-15T21:09:25.904Z,21.10
2018-05-15T21:11:53.481Z,22.60
2018-05-15T21:14:21.099Z,22.73
2018-05-15T21:16:48.636Z,23.03
2018-05-15T21:19:16.228Z,24.30
2018-05-15T21:21:43.773Z,24.57
2018-05-15T21:24:11.349Z,20.77
2018-05-15T21:26:38.923Z,25.90
2018-05-15T21:29:06.471Z,22.93
2018-05-15T21:31:34.227Z,24.80
2018-05-15T21:34:01.781Z,33.23
2018-05-15T21:36:29.375Z,30.03
2018-05-15T21:38:56.953Z,30.10
2018-05-15T21:41:24.667Z,27.93
2018-05-15T21:43:52.219Z,30.30
2018-05-15T21:46:19.817Z,30.70
2018-05-15T21:48:47.531Z,25.70
2018-05-15T21:51:15.110Z,31.93
2018-05-15T21:53:42.872Z,31.07
2018-05-15T21:56:10.457Z,27.73
2018-05-15T21:58:38.773Z,22.73
2018-05-15T22:01:06.311Z,29.47
2018-05-15T22:03:33.892Z,25.60
2018-05-15T22:06:01.427Z,28.40
2018-05-15T22:08:28.994Z,29.10
2018-05-15T22:10:56.521Z,23.73
2018-05-15T22:13:35.871Z,31.03
2018-05-15T22:16:15.306Z,27.77
2018-05-15T22:18:54.741Z,34.33
2018-05-15T22:21:34.163Z,27.60
2018-05-15T22:24:01.252Z,29.13
2018-05-15T22:26:28.796Z,37.20
2018-05-15T22:28:56.384Z,29.87
2018-05-15T22:31:23.962Z,28.00
2018-05-15T22:33:52.289Z,28.80
2018-05-15T22:36:19.879Z,32.00
2018-05-15T22:38:47.460Z,32.50
2018-05-15T22:41:15.884Z,29.90
2018-05-15T22:43:44.146Z,31.97
2018-05-15T22:46:11.716Z,33.30
2018-05-15T22:48:39.250Z,30.23
2018-05-15T22:51:06.849Z,33.93
2018-05-15T22:53:34.378Z,36.43
2018-05-15T22:56:02.080Z,29.63
2018-05-15T22:58:29.664Z,33.90
2018-05-15T23:00:57.251Z,28.23
2018-05-15T23:03:24.848Z,25.13
2018-05-15T23:05:52.424Z,27.70
2018-05-15T23:08:20.035Z,31.77
2018-05-15T23:10:47.627Z,30.53
2018-05-15T23:13:15.247Z,31.53
2018-05-15T23:15:42.933Z,31.53
2018-05-15T23:18:11.000Z,37.13
2018-05-15T23:20:38.559Z,33.40
2018-05-15T23:23:06.141Z,33.23
2018-05-15T23:25:33.681Z,28.23
2018-05-15T23:28:01.245Z,34.13
2018-05-15T23:30:28.789Z,37.10
2018-05-15T23:32:56.373Z,33.23
2018-05-15T23:35:23.969Z,33.97
2018-05-15T23:37:51.512Z,35.03
2018-05-15T23:40:19.316Z,28.93
2018-05-15T23:42:46.919Z,28.87
2018-05-15T23:45:18.338Z,35.70
2018-05-15T23:47:45.957Z,37.37
2018-05-15T23:50:13.521Z,34.30
2018-05-15T23:52:41.118Z,32.97
2018-05-15T23:55:08.793Z,31.70
2018-05-15T23:57:37.153Z,36.78
